• Join FlightAware (Why Join?)
  • Login
  • US Flag 
08:36AM EDT


 

Airport Tracker/Info


-or-


 

Live Flight TrackerFlight Track Log ✈ UPS1122 ✈ 16-May-2013 ✈ KBDL - KALB

Flight Track Log - Related Links

Times and Time Zones

All times are in EDT time to prevent confusion due to time zone crossing. See the UPS1122 flight status page for this flight to view local times or setup timezone preferences in your user account.

Time Position Orientation Groundspeed Altitude Reporting Facility
EDT Latitude Longitude Course Direction KTS MPH feet Rate Location/Type
06:41AM 41.9436 -72.6997 310° West 163 188 1,200  Level Boston Center
06:41AM 41.9664 -72.7361 310° West 154 177 3,000 1,980 Climbing Boston Center
06:42AM 42.0039 -72.7864 315° West 197 227 4,800 2,700 Climbing Boston Center
06:43AM 42.0494 -72.8511 313° West 236 272 8,500 2,520 Climbing Boston Center
06:44AM 42.0950 -72.9158 313° West 242 278 10,000 720 Climbing Boston Center
06:46AM 42.1428 -72.9778 316° Northwest 244 281 10,000  Level Boston Center
06:46AM 42.1800 -73.0311 313° West 239 275 10,000  Level Boston Center
06:47AM 42.2297 -73.1017 314° West 240 276 10,000  Level Boston Center
06:48AM 42.2794 -73.1611 319° Northwest 240 276 10,000  Level Boston Center
06:49AM 42.3289 -73.2292 315° West 239 275 10,000 -300 Level Boston Center
06:50AM 42.3700 -73.2972 309° West 238 274 9,500 -1,080 Descending Boston Center
06:51AM 42.4028 -73.3764 299° West 229 264 7,900 -1,740 Descending Boston Center
06:53AM 42.4375 -73.4725 296° West 235 270 5,700 -1,620 Descending Boston Center
06:54AM 42.4658 -73.5517 296° West 233 268 4,400 -1,380 Descending Boston Center
06:55AM 42.4942 -73.6256 297° West 224 258 3,000 -720 Descending Boston Center
06:56AM 42.5186 -73.6936 296° West 203 234 3,000  Level Boston Center
06:57AM 42.5408 -73.7589 295° West 191 220 3,000  Level Boston Center
06:58AM 42.5736 -73.8019 316° Northwest 181 208 3,000 -240 Level Boston Center
06:59AM 42.6172 -73.8000 North 151 174 2,600 -660 Descending Boston Center
07:00AM 42.6653 -73.8011 359° North 151 174 1,700 -720 Descending Boston Center
07:01AM 42.6986 -73.8044 356° North 116 133 1,100 -600 Descending Boston Center